createdAt,value
2018-06-18T00:00:54.116Z,10.99
2018-06-18T00:06:54.772Z,9.84
2018-06-18T00:10:55.759Z,11.14
2018-06-18T00:12:56.404Z,10.2
2018-06-18T00:16:57.133Z,10.05
2018-06-18T00:22:57.900Z,10.13
2018-06-18T00:26:58.554Z,9.51
2018-06-18T00:32:59.280Z,9.65
2018-06-18T00:39:00.008Z,9.99
2018-06-18T00:43:00.775Z,9.9
2018-06-18T00:49:01.514Z,8.97
2018-06-18T00:53:02.224Z,8.99
2018-06-18T00:55:02.920Z,9.25
2018-06-18T00:59:03.794Z,9.3
2018-06-18T01:05:04.580Z,9.92
2018-06-18T01:09:05.362Z,9.48
2018-06-18T01:15:06.720Z,9.21
2018-06-18T01:19:07.502Z,9.37
2018-06-18T01:21:08.223Z,10.06
2018-06-18T01:25:09.027Z,9.1
2018-06-18T01:31:09.771Z,9.71
2018-06-18T01:35:10.600Z,9.53
2018-06-18T01:41:11.348Z,9.12
2018-06-18T01:47:12.120Z,9.69
2018-06-18T01:51:12.846Z,9.92
2018-06-18T01:57:13.617Z,10.42
2018-06-18T02:01:14.370Z,10.14
2018-06-18T02:03:15.042Z,11.76
2018-06-18T02:07:15.701Z,12.32
2018-06-18T02:13:16.841Z,11.81
2018-06-18T02:17:17.673Z,8.96
2018-06-18T02:23:18.700Z,9.96
2018-06-18T02:29:19.482Z,9.99
2018-06-18T02:33:20.323Z,9.39
2018-06-18T02:39:21.133Z,9.89
2018-06-18T02:43:21.806Z,10.04
2018-06-18T02:49:22.798Z,11.43
2018-06-18T02:55:23.644Z,9.38
2018-06-18T02:59:24.450Z,10.29
2018-06-18T03:05:25.213Z,9.91
2018-06-18T03:09:26.110Z,9.43
2018-06-18T03:11:26.780Z,9.44
2018-06-18T03:15:28.276Z,11.18
2018-06-18T03:21:29.027Z,12.61
2018-06-18T03:25:29.840Z,12.81
2018-06-18T03:31:30.686Z,14.11
2018-06-18T03:37:31.519Z,13.62
2018-06-18T03:41:32.296Z,14
2018-06-18T03:47:32.998Z,18.01
2018-06-18T03:51:33.741Z,17.06
2018-06-18T03:53:34.350Z,17
2018-06-18T03:57:35.394Z,17.68
2018-06-18T04:03:36.143Z,21.36
2018-06-18T04:07:37.005Z,22.38
2018-06-18T04:13:37.671Z,23.08
2018-06-18T04:17:38.420Z,22.21
2018-06-18T04:19:43.782Z,22.4
2018-06-18T04:23:44.776Z,21.74
2018-06-18T04:29:45.499Z,25.68
2018-06-18T04:33:46.183Z,23.87
2018-06-18T04:39:47.082Z,21.52
2018-06-18T04:45:47.934Z,24.51
2018-06-18T04:49:48.644Z,23.64
2018-06-18T04:55:49.556Z,23.75
2018-06-18T04:59:50.330Z,22.78
2018-06-18T05:01:51.070Z,23.18
2018-06-18T05:05:51.825Z,23.71
2018-06-18T05:11:52.547Z,21.88
2018-06-18T05:15:53.297Z,22.03
2018-06-18T05:21:54.231Z,20.25
2018-06-18T05:25:55.123Z,20.81
2018-06-18T05:27:55.914Z,19.38
2018-06-18T05:31:56.631Z,20.38
2018-06-18T05:37:57.639Z,24.42
2018-06-18T05:41:58.303Z,22.89
2018-06-18T05:47:59.138Z,24.25
2018-06-18T05:53:59.798Z,24.58
2018-06-18T05:58:00.512Z,23.82
2018-06-18T06:04:01.189Z,25.01
2018-06-18T06:08:02.055Z,24.1
2018-06-18T06:10:02.846Z,25
2018-06-18T06:14:03.547Z,23.81
2018-06-18T06:20:04.315Z,22.25
2018-06-18T06:24:05.025Z,24.79
2018-06-18T06:30:06.163Z,20.35
2018-06-18T06:36:06.959Z,19.09
2018-06-18T06:40:07.763Z,19.66
2018-06-18T06:46:08.601Z,19.59
2018-06-18T06:50:09.321Z,20.13
2018-06-18T06:56:10.163Z,18.28
2018-06-18T07:02:10.927Z,20.93
2018-06-18T07:06:11.711Z,20.26
2018-06-18T07:12:12.514Z,18.85
2018-06-18T07:16:13.431Z,19.67
2018-06-18T07:18:14.160Z,18.53
2018-06-18T07:22:14.863Z,18.65
2018-06-18T07:28:16.465Z,18.79
2018-06-18T07:32:17.240Z,17.39
2018-06-18T07:38:18.030Z,15.75
2018-06-18T07:44:18.972Z,14.79
2018-06-18T07:48:19.876Z,16.38
2018-06-18T07:54:20.744Z,15.85
2018-06-18T07:58:21.572Z,13.76
2018-06-18T08:00:22.710Z,13.49
2018-06-18T08:04:23.604Z,11.51
2018-06-18T08:10:24.344Z,8.84
2018-06-18T08:14:25.060Z,8.62
2018-06-18T08:20:25.948Z,8.84
2018-06-18T08:24:26.719Z,8.24
2018-06-18T08:26:27.427Z,9.3
2018-06-18T08:30:28.727Z,8.68
2018-06-18T08:36:29.374Z,9.89
2018-06-18T08:40:30.147Z,8.97
2018-06-18T08:46:30.871Z,9.47
2018-06-18T08:52:31.690Z,9.64
2018-06-18T08:56:32.511Z,8.78
2018-06-18T09:02:33.369Z,9.52
2018-06-18T09:06:34.041Z,9.26
2018-06-18T09:08:34.738Z,9.87
2018-06-18T09:12:35.472Z,9.5
2018-06-18T09:18:36.284Z,9.92
2018-06-18T09:22:37.084Z,9.25
2018-06-18T09:28:37.771Z,10.76
2018-06-18T09:32:38.675Z,9.58
2018-06-18T09:34:39.224Z,11.05
2018-06-18T09:38:40.012Z,10.07
2018-06-18T09:44:41.104Z,10.31
2018-06-18T09:48:41.733Z,10.02
2018-06-18T09:54:42.718Z,9.05
2018-06-18T10:00:43.580Z,10.36
2018-06-18T10:04:44.374Z,10.12
2018-06-18T10:10:45.227Z,9.05
2018-06-18T10:14:46.072Z,8.67
2018-06-18T10:16:46.746Z,9.46
2018-06-18T10:20:47.604Z,9.37
2018-06-18T10:26:48.514Z,9.52
2018-06-18T10:30:49.147Z,9.59
2018-06-18T10:36:49.896Z,9.59
2018-06-18T10:42:50.731Z,9.85
2018-06-18T10:46:51.500Z,9.02
2018-06-18T10:52:52.445Z,9.17
2018-06-18T10:56:53.342Z,9.73
2018-06-18T10:58:54.301Z,9.25
2018-06-18T11:02:55.000Z,9.48
2018-06-18T11:08:55.821Z,9.05
2018-06-18T11:12:56.631Z,9.21
2018-06-18T11:18:57.341Z,8.94
2018-06-18T11:24:58.063Z,9.64
2018-06-18T11:28:58.895Z,9.56
2018-06-18T11:34:59.705Z,8.88
2018-06-18T11:39:00.376Z,9.01
2018-06-18T11:45:01.080Z,8.76
2018-06-18T11:51:01.835Z,9.19
2018-06-18T11:55:02.597Z,8.53
2018-06-18T12:01:03.352Z,9.42
2018-06-18T12:05:04.046Z,8.69
2018-06-18T12:07:04.835Z,9.15
2018-06-18T12:11:05.550Z,8.82
2018-06-18T12:17:06.308Z,8.9
2018-06-18T12:21:07.134Z,9.12
2018-06-18T12:27:07.968Z,9.55
2018-06-18T12:33:08.853Z,9.46
2018-06-18T12:37:09.695Z,8.45
2018-06-18T12:43:10.502Z,9.23
2018-06-18T12:47:11.203Z,8.31
2018-06-18T12:49:11.884Z,8.74
2018-06-18T12:53:12.687Z,7.99
2018-06-18T12:59:13.435Z,8.42
2018-06-18T13:03:14.341Z,8.52
2018-06-18T13:09:15.107Z,8.87
2018-06-18T13:13:15.797Z,8.46
2018-06-18T13:15:16.915Z,8.78
2018-06-18T13:19:17.664Z,8.49
2018-06-18T13:25:18.390Z,9.13
2018-06-18T13:29:19.410Z,8.39
2018-06-18T13:35:20.171Z,8.18
2018-06-18T13:41:20.980Z,8.25
2018-06-18T13:45:22.044Z,8.05
2018-06-18T13:51:22.896Z,8.31
2018-06-18T13:55:23.651Z,8.52
2018-06-18T13:57:24.408Z,8.72
2018-06-18T14:01:26.017Z,7.91
2018-06-18T14:07:26.983Z,9.02
2018-06-18T14:11:27.763Z,8.36
2018-06-18T14:17:28.560Z,8.38
2018-06-18T14:23:29.431Z,9.59
2018-06-18T14:27:30.265Z,10.28
2018-06-18T14:33:31.159Z,8.37
2018-06-18T14:37:31.896Z,8.33
2018-06-18T14:43:32.726Z,8
2018-06-18T14:49:33.588Z,8.26
2018-06-18T14:53:34.480Z,8.96
2018-06-18T14:59:35.578Z,8.28
2018-06-18T15:03:36.330Z,7.96
2018-06-18T15:05:37.036Z,8.72
2018-06-18T15:09:37.909Z,8.4
2018-06-18T15:15:38.824Z,7.93
2018-06-18T15:19:39.545Z,7.72
2018-06-18T15:25:40.383Z,8.31
2018-06-18T15:31:41.097Z,8.64
2018-06-18T15:35:41.680Z,8.3
2018-06-18T15:41:42.742Z,8.28
2018-06-18T15:45:43.433Z,7.57
2018-06-18T15:47:44.143Z,7.88
2018-06-18T15:51:44.916Z,7.69
2018-06-18T15:57:45.771Z,8.34
2018-06-18T16:01:46.790Z,8.45
2018-06-18T16:07:47.554Z,7.94
2018-06-18T16:13:48.405Z,8.98
2018-06-18T16:17:49.429Z,8.29
2018-06-18T16:23:50.168Z,8.52
2018-06-18T16:27:50.898Z,8.53
2018-06-18T16:33:51.977Z,9.02
2018-06-18T16:39:52.832Z,14.18
2018-06-18T16:43:53.841Z,11.94
2018-06-18T16:49:55.307Z,8.96
2018-06-18T16:53:56.109Z,9.18
2018-06-18T16:55:56.715Z,10.92
2018-06-18T16:59:57.485Z,13.21
2018-06-18T17:05:58.411Z,9.27
2018-06-18T17:09:59.086Z,9.14
2018-06-18T17:15:59.883Z,8.19
2018-06-18T17:22:00.694Z,9.52
2018-06-18T17:26:01.455Z,8.58
2018-06-18T17:32:02.263Z,8.79
2018-06-18T17:36:02.980Z,8.58
2018-06-18T17:38:03.685Z,9.31
2018-06-18T17:42:04.425Z,8.76
2018-06-18T17:48:05.328Z,9.04
2018-06-18T17:52:06.062Z,9.34
2018-06-18T17:58:06.758Z,9.69
2018-06-18T18:04:07.496Z,9.43
2018-06-18T18:08:08.247Z,9.37
2018-06-18T18:14:09.099Z,9.53
2018-06-18T18:18:09.811Z,9.15
2018-06-18T18:24:10.657Z,10.15
2018-06-18T18:30:12.008Z,10.14
2018-06-18T18:34:12.726Z,9.32
2018-06-18T18:40:13.627Z,9.63
2018-06-18T18:44:14.409Z,9.74
2018-06-18T18:46:15.107Z,10.4
2018-06-18T18:50:15.913Z,10.38
2018-06-18T18:56:16.825Z,10.12
2018-06-18T19:00:17.953Z,10.25
2018-06-18T19:06:18.820Z,9.96
2018-06-18T19:12:19.719Z,10.85
2018-06-18T19:16:20.637Z,9.8
2018-06-18T19:22:21.406Z,10.85
2018-06-18T19:26:22.307Z,9.87
2018-06-18T19:28:23.537Z,10.67
2018-06-18T19:32:24.340Z,10.16
2018-06-18T19:38:25.109Z,10.3
2018-06-18T19:42:25.890Z,10.11
2018-06-18T19:48:26.730Z,10.07
2018-06-18T19:54:27.537Z,11.96
2018-06-18T19:58:28.286Z,10.99
2018-06-18T20:04:29.184Z,12.94
2018-06-18T20:08:29.836Z,12.13
2018-06-18T20:14:30.720Z,12.05
2018-06-18T20:20:31.387Z,13.12
2018-06-18T20:24:32.252Z,13.01
2018-06-18T20:30:33.057Z,11.63
2018-06-18T20:34:34.180Z,12.04
2018-06-18T20:36:35.456Z,11.54
2018-06-18T20:40:36.316Z,10.97
2018-06-18T20:46:37.199Z,11.78
2018-06-18T20:50:38.311Z,12.03
2018-06-18T20:56:39.165Z,12.24
2018-06-18T21:02:40.057Z,11.49
2018-06-18T21:06:40.805Z,11.03
2018-06-18T21:12:41.645Z,11.86
2018-06-18T21:16:42.467Z,10.36
2018-06-18T21:18:43.159Z,11.69
2018-06-18T21:22:43.803Z,10.2
2018-06-18T21:28:44.493Z,10.72
2018-06-18T21:32:45.444Z,10.45
2018-06-18T21:38:46.709Z,11.88
2018-06-18T21:42:47.443Z,11.04
2018-06-18T21:44:48.142Z,11.18
2018-06-18T21:48:48.961Z,10.59
2018-06-18T21:54:49.695Z,11.35
2018-06-18T21:58:51.398Z,10.92
2018-06-18T22:10:55.815Z,11.48
2018-06-18T22:10:55.902Z,11.98
2018-06-18T22:14:56.552Z,10.91
2018-06-18T22:20:57.280Z,11.44
2018-06-18T22:24:57.990Z,11.12
2018-06-18T22:26:58.710Z,11.26
2018-06-18T22:30:59.694Z,10.95
2018-06-18T22:37:00.387Z,11.92
2018-06-18T22:41:01.117Z,12.22
2018-06-18T22:52:02.718Z,13.11
2018-06-18T22:58:03.462Z,12.22
2018-06-18T23:02:04.158Z,12.09
2018-06-18T23:08:04.951Z,14.39
2018-06-18T23:12:05.798Z,14.13
2018-06-18T23:14:06.506Z,13.27
2018-06-18T23:18:07.277Z,12.74
2018-06-18T23:24:08.101Z,12.8
2018-06-18T23:28:08.820Z,12.29
2018-06-18T23:34:09.540Z,14.31
2018-06-18T23:40:10.291Z,14.97
2018-06-18T23:44:10.997Z,14.53
2018-06-18T23:50:11.825Z,15.82
2018-06-18T23:54:12.525Z,14.47
2018-06-18T23:56:13.362Z,15.68
